sensor_id;sensor_type;location;lat;lon;timestamp;pressure;altitude;pressure_sealevel;temperature;humidity
76611;BME280;65503;48.534;9.062;2023-01-24T00:01:27;98209.13;;;4.40;68.18
76611;BME280;65503;48.534;9.062;2023-01-24T00:03:54;98221.19;;;4.33;68.69
76611;BME280;65503;48.534;9.062;2023-01-24T00:06:21;98209.00;;;4.41;68.07
76611;BME280;65503;48.534;9.062;2023-01-24T00:08:47;98205.41;;;4.42;67.43
76611;BME280;65503;48.534;9.062;2023-01-24T00:11:13;98206.56;;;4.56;67.71
76611;BME280;65503;48.534;9.062;2023-01-24T00:13:40;98212.34;;;4.09;68.80
76611;BME280;65503;48.534;9.062;2023-01-24T00:16:14;98216.44;;;4.20;68.60
76611;BME280;65503;48.534;9.062;2023-01-24T00:18:42;98217.88;;;4.14;68.43
76611;BME280;65503;48.534;9.062;2023-01-24T00:21:12;98212.91;;;3.95;70.05
76611;BME280;65503;48.534;9.062;2023-01-24T00:23:40;98207.41;;;3.98;69.22
76611;BME280;65503;48.534;9.062;2023-01-24T00:26:07;98221.81;;;4.27;68.35
76611;BME280;65503;48.534;9.062;2023-01-24T00:28:34;98218.19;;;4.11;68.64
76611;BME280;65503;48.534;9.062;2023-01-24T00:31:01;98217.34;;;3.69;70.76
76611;BME280;65503;48.534;9.062;2023-01-24T00:33:29;98228.91;;;4.08;69.13
76611;BME280;65503;48.534;9.062;2023-01-24T00:35:55;98220.56;;;3.97;69.72
76611;BME280;65503;48.534;9.062;2023-01-24T00:38:22;98221.97;;;3.83;69.84
76611;BME280;65503;48.534;9.062;2023-01-24T00:40:49;98225.97;;;4.03;69.65
76611;BME280;65503;48.534;9.062;2023-01-24T00:43:17;98219.34;;;3.75;70.46
76611;BME280;65503;48.534;9.062;2023-01-24T00:45:44;98220.72;;;3.95;70.01
76611;BME280;65503;48.534;9.062;2023-01-24T00:48:12;98227.22;;;3.91;69.88
76611;BME280;65503;48.534;9.062;2023-01-24T00:50:39;98219.75;;;3.96;69.73
76611;BME280;65503;48.534;9.062;2023-01-24T00:53:06;98233.78;;;3.44;71.46
76611;BME280;65503;48.534;9.062;2023-01-24T00:55:33;98219.22;;;3.85;69.72
76611;BME280;65503;48.534;9.062;2023-01-24T00:57:59;98229.19;;;3.97;69.30
76611;BME280;65503;48.534;9.062;2023-01-24T01:00:26;98228.13;;;3.82;70.42
76611;BME280;65503;48.534;9.062;2023-01-24T01:02:52;98235.25;;;3.72;70.15
76611;BME280;65503;48.534;9.062;2023-01-24T01:05:19;98227.16;;;3.75;70.07
76611;BME280;65503;48.534;9.062;2023-01-24T01:07:46;98238.41;;;3.84;70.11
76611;BME280;65503;48.534;9.062;2023-01-24T01:10:13;98247.44;;;3.97;69.74
76611;BME280;65503;48.534;9.062;2023-01-24T01:12:39;98241.22;;;3.90;69.47
76611;BME280;65503;48.534;9.062;2023-01-24T01:15:06;98242.16;;;3.81;70.01
76611;BME280;65503;48.534;9.062;2023-01-24T01:17:32;98238.00;;;4.04;69.77
76611;BME280;65503;48.534;9.062;2023-01-24T01:19:59;98245.72;;;4.22;68.62
76611;BME280;65503;48.534;9.062;2023-01-24T01:22:25;98245.56;;;4.24;68.12
76611;BME280;65503;48.534;9.062;2023-01-24T01:24:52;98241.41;;;3.97;69.12
76611;BME280;65503;48.534;9.062;2023-01-24T01:27:18;98244.38;;;3.76;69.67
76611;BME280;65503;48.534;9.062;2023-01-24T01:29:45;98251.41;;;4.09;68.90
76611;BME280;65503;48.534;9.062;2023-01-24T01:32:11;98251.19;;;4.03;69.34
76611;BME280;65503;48.534;9.062;2023-01-24T01:34:37;98248.47;;;4.12;69.04
76611;BME280;65503;48.534;9.062;2023-01-24T01:37:04;98249.13;;;4.14;68.57
76611;BME280;65503;48.534;9.062;2023-01-24T01:39:30;98261.75;;;4.01;69.09
76611;BME280;65503;48.534;9.062;2023-01-24T01:41:57;98252.03;;;4.03;69.10
76611;BME280;65503;48.534;9.062;2023-01-24T01:44:29;98248.66;;;3.85;69.93
76611;BME280;65503;48.534;9.062;2023-01-24T01:47:16;98253.47;;;3.72;71.29
76611;BME280;65503;48.534;9.062;2023-01-24T01:49:52;98256.56;;;4.01;70.15
76611;BME280;65503;48.534;9.062;2023-01-24T01:52:22;98256.06;;;4.06;69.78
76611;BME280;65503;48.534;9.062;2023-01-24T01:54:51;98252.34;;;3.49;71.99
76611;BME280;65503;48.534;9.062;2023-01-24T01:57:26;98251.94;;;3.87;70.89
76611;BME280;65503;48.534;9.062;2023-01-24T02:00:09;98260.13;;;4.00;70.10
76611;BME280;65503;48.534;9.062;2023-01-24T02:02:40;98252.97;;;4.02;69.71
76611;BME280;65503;48.534;9.062;2023-01-24T02:05:10;98254.28;;;3.98;69.85
76611;BME280;65503;48.534;9.062;2023-01-24T02:07:57;98262.94;;;4.07;69.50
76611;BME280;65503;48.534;9.062;2023-01-24T02:10:26;98254.28;;;3.98;70.30
76611;BME280;65503;48.534;9.062;2023-01-24T02:13:13;98260.19;;;4.08;69.94
76611;BME280;65503;48.534;9.062;2023-01-24T02:15:41;98251.94;;;3.87;70.45
76611;BME280;65503;48.534;9.062;2023-01-24T02:18:30;98255.59;;;4.02;70.43
76611;BME280;65503;48.534;9.062;2023-01-24T02:20:57;98257.03;;;3.97;70.40
76611;BME280;65503;48.534;9.062;2023-01-24T02:26:27;98257.38;;;3.68;71.78
76611;BME280;65503;48.534;9.062;2023-01-24T02:29:01;98259.22;;;3.76;71.61
76611;BME280;65503;48.534;9.062;2023-01-24T02:31:28;98253.38;;;3.56;72.11
76611;BME280;65503;48.534;9.062;2023-01-24T02:33:55;98254.28;;;3.72;71.48
76611;BME280;65503;48.534;9.062;2023-01-24T02:36:25;98260.75;;;3.94;70.60
76611;BME280;65503;48.534;9.062;2023-01-24T02:39:23;98258.72;;;4.14;70.64
76611;BME280;65503;48.534;9.062;2023-01-24T02:41:55;98256.44;;;3.77;71.01
76611;BME280;65503;48.534;9.062;2023-01-24T02:44:30;98257.31;;;3.94;71.01
76611;BME280;65503;48.534;9.062;2023-01-24T02:46:58;98264.38;;;4.01;71.18
76611;BME280;65503;48.534;9.062;2023-01-24T02:49:25;98251.25;;;4.19;70.53
76611;BME280;65503;48.534;9.062;2023-01-24T02:51:52;98263.41;;;4.10;70.75
76611;BME280;65503;48.534;9.062;2023-01-24T02:54:38;98264.44;;;4.18;70.72
76611;BME280;65503;48.534;9.062;2023-01-24T02:57:05;98262.16;;;4.23;70.45
76611;BME280;65503;48.534;9.062;2023-01-24T02:59:50;98266.31;;;3.99;71.08
76611;BME280;65503;48.534;9.062;2023-01-24T03:02:17;98263.88;;;3.98;70.97
76611;BME280;65503;48.534;9.062;2023-01-24T03:04:43;98264.56;;;4.08;70.47
76611;BME280;65503;48.534;9.062;2023-01-24T03:07:10;98265.69;;;4.05;70.61
76611;BME280;65503;48.534;9.062;2023-01-24T03:09:36;98268.75;;;4.01;70.50
76611;BME280;65503;48.534;9.062;2023-01-24T03:12:05;98260.47;;;4.05;71.23
76611;BME280;65503;48.534;9.062;2023-01-24T03:14:51;98270.59;;;4.16;70.52
76611;BME280;65503;48.534;9.062;2023-01-24T03:17:36;98260.50;;;4.13;70.74
76611;BME280;65503;48.534;9.062;2023-01-24T03:20:20;98266.69;;;4.12;70.62
76611;BME280;65503;48.534;9.062;2023-01-24T03:23:05;98264.41;;;4.09;70.74
76611;BME280;65503;48.534;9.062;2023-01-24T03:25:54;98273.84;;;4.10;70.47
76611;BME280;65503;48.534;9.062;2023-01-24T03:28:40;98269.97;;;4.14;70.29
76611;BME280;65503;48.534;9.062;2023-01-24T03:31:25;98272.59;;;4.23;70.27
76611;BME280;65503;48.534;9.062;2023-01-24T03:34:10;98269.69;;;4.34;70.02
76611;BME280;65503;48.534;9.062;2023-01-24T03:36:55;98278.81;;;4.30;69.69
76611;BME280;65503;48.534;9.062;2023-01-24T03:39:21;98278.13;;;4.28;69.66
76611;BME280;65503;48.534;9.062;2023-01-24T03:42:07;98265.09;;;3.86;71.44
76611;BME280;65503;48.534;9.062;2023-01-24T03:44:33;98273.19;;;4.08;70.60
76611;BME280;65503;48.534;9.062;2023-01-24T03:47:00;98273.53;;;4.13;70.33
76611;BME280;65503;48.534;9.062;2023-01-24T03:49:27;98273.00;;;4.44;69.38
76611;BME280;65503;48.534;9.062;2023-01-24T03:52:12;98273.84;;;4.10;70.01
76611;BME280;65503;48.534;9.062;2023-01-24T03:54:50;98275.53;;;4.20;70.66
76611;BME280;65503;48.534;9.062;2023-01-24T03:57:17;98275.72;;;3.92;71.05
76611;BME280;65503;48.534;9.062;2023-01-24T03:59:43;98284.50;;;3.91;70.95
76611;BME280;65503;48.534;9.062;2023-01-24T04:02:10;98279.03;;;4.10;70.71
76611;BME280;65503;48.534;9.062;2023-01-24T04:04:36;98283.00;;;4.23;70.16
76611;BME280;65503;48.534;9.062;2023-01-24T04:07:21;98276.44;;;4.10;69.61
76611;BME280;65503;48.534;9.062;2023-01-24T04:09:52;98284.16;;;4.20;70.51
76611;BME280;65503;48.534;9.062;2023-01-24T04:12:18;98281.81;;;4.09;70.62
76611;BME280;65503;48.534;9.062;2023-01-24T04:14:45;98277.13;;;4.12;70.81
76611;BME280;65503;48.534;9.062;2023-01-24T04:17:12;98288.97;;;4.07;70.72
76611;BME280;65503;48.534;9.062;2023-01-24T04:19:38;98283.00;;;4.14;70.36
76611;BME280;65503;48.534;9.062;2023-01-24T04:22:05;98283.25;;;4.03;71.11
76611;BME280;65503;48.534;9.062;2023-01-24T04:24:31;98280.66;;;4.03;70.93
76611;BME280;65503;48.534;9.062;2023-01-24T04:26:58;98284.97;;;4.21;70.16
76611;BME280;65503;48.534;9.062;2023-01-24T04:29:24;98291.53;;;4.33;70.22
76611;BME280;65503;48.534;9.062;2023-01-24T04:31:51;98284.97;;;4.21;70.40
76611;BME280;65503;48.534;9.062;2023-01-24T04:34:17;98293.00;;;4.35;69.93
76611;BME280;65503;48.534;9.062;2023-01-24T04:36:44;98286.56;;;4.22;70.17
76611;BME280;65503;48.534;9.062;2023-01-24T04:39:10;98288.13;;;4.32;70.09
76611;BME280;65503;48.534;9.062;2023-01-24T04:41:36;98288.22;;;4.23;69.90
76611;BME280;65503;48.534;9.062;2023-01-24T04:44:03;98290.00;;;4.22;70.80
76611;BME280;65503;48.534;9.062;2023-01-24T04:46:29;98291.09;;;4.11;70.67
76611;BME280;65503;48.534;9.062;2023-01-24T04:48:56;98290.19;;;4.21;70.81
76611;BME280;65503;48.534;9.062;2023-01-24T04:51:22;98285.59;;;4.14;70.54
76611;BME280;65503;48.534;9.062;2023-01-24T04:53:49;98295.38;;;4.21;70.24
76611;BME280;65503;48.534;9.062;2023-01-24T04:56:15;98290.25;;;4.37;69.93
76611;BME280;65503;48.534;9.062;2023-01-24T04:58:42;98295.84;;;4.16;70.69
76611;BME280;65503;48.534;9.062;2023-01-24T05:01:08;98301.22;;;4.14;71.15
76611;BME280;65503;48.534;9.062;2023-01-24T05:03:35;98296.38;;;4.28;70.47
76611;BME280;65503;48.534;9.062;2023-01-24T05:06:01;98297.25;;;4.44;69.69
76611;BME280;65503;48.534;9.062;2023-01-24T05:08:28;98301.28;;;4.31;70.10
76611;BME280;65503;48.534;9.062;2023-01-24T05:10:54;98297.25;;;4.02;71.38
76611;BME280;65503;48.534;9.062;2023-01-24T05:13:21;98298.97;;;4.20;70.88
76611;BME280;65503;48.534;9.062;2023-01-24T05:15:48;98298.00;;;4.21;70.88
76611;BME280;65503;48.534;9.062;2023-01-24T05:18:16;98306.56;;;3.79;72.28
76611;BME280;65503;48.534;9.062;2023-01-24T05:20:43;98309.41;;;3.94;71.48
76611;BME280;65503;48.534;9.062;2023-01-24T05:23:11;98300.50;;;4.04;71.64
76611;BME280;65503;48.534;9.062;2023-01-24T05:25:37;98304.16;;;4.20;71.22
76611;BME280;65503;48.534;9.062;2023-01-24T05:28:04;98311.28;;;4.09;71.95
76611;BME280;65503;48.534;9.062;2023-01-24T05:30:31;98315.81;;;4.07;71.16
76611;BME280;65503;48.534;9.062;2023-01-24T05:32:58;98317.41;;;4.00;71.38
76611;BME280;65503;48.534;9.062;2023-01-24T05:35:24;98311.84;;;4.29;71.29
76611;BME280;65503;48.534;9.062;2023-01-24T05:37:51;98323.78;;;4.06;71.26
76611;BME280;65503;48.534;9.062;2023-01-24T05:40:17;98317.88;;;4.30;70.64
76611;BME280;65503;48.534;9.062;2023-01-24T05:42:44;98313.97;;;4.26;70.38
76611;BME280;65503;48.534;9.062;2023-01-24T05:45:10;98325.31;;;4.16;71.49
76611;BME280;65503;48.534;9.062;2023-01-24T05:47:37;98327.28;;;4.14;71.18
76611;BME280;65503;48.534;9.062;2023-01-24T05:50:04;98326.75;;;4.11;71.32
76611;BME280;65503;48.534;9.062;2023-01-24T05:52:30;98329.69;;;4.16;71.51
76611;BME280;65503;48.534;9.062;2023-01-24T05:54:57;98325.97;;;4.19;71.39
76611;BME280;65503;48.534;9.062;2023-01-24T05:57:23;98324.06;;;3.95;71.60
76611;BME280;65503;48.534;9.062;2023-01-24T05:59:50;98339.63;;;4.12;71.74
76611;BME280;65503;48.534;9.062;2023-01-24T06:02:16;98333.00;;;3.92;71.59
76611;BME280;65503;48.534;9.062;2023-01-24T06:04:44;98340.59;;;4.11;71.53
76611;BME280;65503;48.534;9.062;2023-01-24T06:07:11;98337.78;;;4.05;71.57
76611;BME280;65503;48.534;9.062;2023-01-24T06:09:37;98342.16;;;4.04;71.71
76611;BME280;65503;48.534;9.062;2023-01-24T06:12:04;98337.41;;;4.26;71.20
76611;BME280;65503;48.534;9.062;2023-01-24T06:14:30;98344.34;;;4.43;70.84
76611;BME280;65503;48.534;9.062;2023-01-24T06:16:57;98342.97;;;4.31;70.58
76611;BME280;65503;48.534;9.062;2023-01-24T06:19:25;98335.34;;;4.37;70.30
76611;BME280;65503;48.534;9.062;2023-01-24T06:24:25;98344.00;;;4.38;70.72
76611;BME280;65503;48.534;9.062;2023-01-24T06:26:53;98334.47;;;4.29;70.58
76611;BME280;65503;48.534;9.062;2023-01-24T06:29:20;98330.28;;;4.36;70.85
76611;BME280;65503;48.534;9.062;2023-01-24T06:40:07;98339.69;;;4.29;70.95
76611;BME280;65503;48.534;9.062;2023-01-24T06:42:36;98340.38;;;4.39;70.51
76611;BME280;65503;48.534;9.062;2023-01-24T06:45:03;98352.44;;;4.40;70.79
76611;BME280;65503;48.534;9.062;2023-01-24T06:47:30;98348.47;;;4.28;70.85
76611;BME280;65503;48.534;9.062;2023-01-24T06:49:56;98342.44;;;4.27;70.91
76611;BME280;65503;48.534;9.062;2023-01-24T06:52:23;98344.00;;;4.38;70.57
76611;BME280;65503;48.534;9.062;2023-01-24T06:54:49;98347.13;;;4.49;69.87
76611;BME280;65503;48.534;9.062;2023-01-24T06:57:16;98357.38;;;4.43;70.37
76611;BME280;65503;48.534;9.062;2023-01-24T06:59:42;98357.38;;;4.51;70.33
76611;BME280;65503;48.534;9.062;2023-01-24T07:02:10;98358.53;;;4.56;69.65
76611;BME280;65503;48.534;9.062;2023-01-24T07:04:36;98357.84;;;4.46;69.71
76611;BME280;65503;48.534;9.062;2023-01-24T07:07:03;98357.69;;;4.14;71.01
76611;BME280;65503;48.534;9.062;2023-01-24T07:09:32;98358.81;;;4.37;70.49
76611;BME280;65503;48.534;9.062;2023-01-24T07:11:58;98369.72;;;4.41;70.36
76611;BME280;65503;48.534;9.062;2023-01-24T07:14:25;98365.13;;;4.35;70.46
76611;BME280;65503;48.534;9.062;2023-01-24T07:16:52;98374.66;;;4.52;70.00
76611;BME280;65503;48.534;9.062;2023-01-24T07:19:20;98376.34;;;4.61;69.56
76611;BME280;65503;48.534;9.062;2023-01-24T07:21:53;98370.31;;;4.61;69.33
76611;BME280;65503;48.534;9.062;2023-01-24T07:24:21;98389.31;;;4.53;69.56
76611;BME280;65503;48.534;9.062;2023-01-24T07:26:50;98390.00;;;4.55;69.81
76611;BME280;65503;48.534;9.062;2023-01-24T07:29:21;98392.47;;;4.65;69.23
76611;BME280;65503;48.534;9.062;2023-01-24T07:31:48;98389.94;;;4.47;69.57
76611;BME280;65503;48.534;9.062;2023-01-24T07:34:16;98395.56;;;4.60;69.40
76611;BME280;65503;48.534;9.062;2023-01-24T07:36:44;98396.03;;;4.64;69.41
76611;BME280;65503;48.534;9.062;2023-01-24T07:39:11;98387.44;;;4.71;68.79
76611;BME280;65503;48.534;9.062;2023-01-24T07:41:37;98407.91;;;4.58;69.46
76611;BME280;65503;48.534;9.062;2023-01-24T07:44:09;98407.63;;;4.61;69.57
76611;BME280;65503;48.534;9.062;2023-01-24T07:46:35;98408.31;;;4.71;69.00
76611;BME280;65503;48.534;9.062;2023-01-24T07:49:02;98403.41;;;4.68;68.87
76611;BME280;65503;48.534;9.062;2023-01-24T07:51:28;98405.66;;;4.63;69.00
76611;BME280;65503;48.534;9.062;2023-01-24T07:53:55;98411.13;;;4.86;67.85
76611;BME280;65503;48.534;9.062;2023-01-24T07:56:21;98409.69;;;4.91;68.27
76611;BME280;65503;48.534;9.062;2023-01-24T07:58:52;98419.47;;;4.89;67.71
76611;BME280;65503;48.534;9.062;2023-01-24T08:01:19;98419.47;;;4.97;67.33
76611;BME280;65503;48.534;9.062;2023-01-24T08:03:46;98425.31;;;4.91;67.64
76611;BME280;65503;48.534;9.062;2023-01-24T08:06:13;98427.97;;;4.99;67.70
76611;BME280;65503;48.534;9.062;2023-01-24T08:08:40;98433.88;;;5.10;66.76
76611;BME280;65503;48.534;9.062;2023-01-24T08:11:06;98433.88;;;5.10;66.88
76611;BME280;65503;48.534;9.062;2023-01-24T08:13:33;98433.50;;;4.96;67.17
76611;BME280;65503;48.534;9.062;2023-01-24T08:16:00;98442.66;;;5.09;67.41
76611;BME280;65503;48.534;9.062;2023-01-24T08:18:27;98450.84;;;5.14;66.75
76611;BME280;65503;48.534;9.062;2023-01-24T08:20:55;98453.31;;;5.23;66.71
76611;BME280;65503;48.534;9.062;2023-01-24T08:23:22;98460.16;;;5.16;66.61
76611;BME280;65503;48.534;9.062;2023-01-24T08:25:48;98452.63;;;5.05;66.88
76611;BME280;65503;48.534;9.062;2023-01-24T08:28:15;98452.84;;;4.86;67.95
76611;BME280;65503;48.534;9.062;2023-01-24T08:30:42;98448.31;;;4.96;67.41
76611;BME280;65503;48.534;9.062;2023-01-24T08:33:09;98446.94;;;5.18;66.68
76611;BME280;65503;48.534;9.062;2023-01-24T08:35:41;98455.84;;;5.07;66.73
76611;BME280;65503;48.534;9.062;2023-01-24T08:38:07;98447.41;;;5.05;66.82
76611;BME280;65503;48.534;9.062;2023-01-24T08:40:33;98457.06;;;5.21;66.93
76611;BME280;65503;48.534;9.062;2023-01-24T08:43:14;98455.13;;;5.23;66.05
76611;BME280;65503;48.534;9.062;2023-01-24T08:45:40;98453.00;;;5.26;66.08
76611;BME280;65503;48.534;9.062;2023-01-24T08:48:07;98464.94;;;5.37;65.63
76611;BME280;65503;48.534;9.062;2023-01-24T08:50:33;98455.78;;;5.33;65.99
76611;BME280;65503;48.534;9.062;2023-01-24T08:52:59;98466.88;;;5.27;66.04
76611;BME280;65503;48.534;9.062;2023-01-24T08:55:26;98473.09;;;5.34;66.22
76611;BME280;65503;48.534;9.062;2023-01-24T08:57:59;98466.91;;;5.43;65.92
76611;BME280;65503;48.534;9.062;2023-01-24T09:00:25;98470.47;;;5.42;65.92
76611;BME280;65503;48.534;9.062;2023-01-24T09:02:52;98472.63;;;5.47;66.02
76611;BME280;65503;48.534;9.062;2023-01-24T09:05:18;98469.66;;;5.41;65.71
76611;BME280;65503;48.534;9.062;2023-01-24T09:07:46;98468.50;;;5.28;66.11
76611;BME280;65503;48.534;9.062;2023-01-24T09:10:12;98471.13;;;5.36;66.45
76611;BME280;65503;48.534;9.062;2023-01-24T09:12:39;98481.63;;;5.52;66.00
76611;BME280;65503;48.534;9.062;2023-01-24T09:15:05;98479.47;;;5.48;65.48
76611;BME280;65503;48.534;9.062;2023-01-24T09:17:33;98483.94;;;5.63;65.36
76611;BME280;65503;48.534;9.062;2023-01-24T09:20:01;98483.91;;;5.55;64.81
76611;BME280;65503;48.534;9.062;2023-01-24T09:22:27;98492.06;;;5.52;65.14
76611;BME280;65503;48.534;9.062;2023-01-24T09:24:54;98481.28;;;5.55;65.34
76611;BME280;65503;48.534;9.062;2023-01-24T09:27:20;98488.44;;;5.53;65.50
76611;BME280;65503;48.534;9.062;2023-01-24T09:29:47;98491.41;;;5.50;65.82
76611;BME280;65503;48.534;9.062;2023-01-24T09:32:13;98484.06;;;5.70;64.98
76611;BME280;65503;48.534;9.062;2023-01-24T09:34:40;98484.78;;;5.80;64.50
76611;BME280;65503;48.534;9.062;2023-01-24T09:37:16;98481.34;;;5.88;64.59
76611;BME280;65503;48.534;9.062;2023-01-24T09:39:43;98486.88;;;5.68;64.95
76611;BME280;65503;48.534;9.062;2023-01-24T09:45:49;98479.66;;;5.54;65.18
76611;BME280;65503;48.534;9.062;2023-01-24T09:48:19;98484.59;;;5.73;65.12
76611;BME280;65503;48.534;9.062;2023-01-24T09:50:54;98486.19;;;5.58;65.19
76611;BME280;65503;48.534;9.062;2023-01-24T09:53:30;98486.50;;;5.55;65.38
76611;BME280;65503;48.534;9.062;2023-01-24T09:56:01;98487.84;;;5.75;65.06
76611;BME280;65503;48.534;9.062;2023-01-24T09:58:39;98486.91;;;5.93;64.40
76611;BME280;65503;48.534;9.062;2023-01-24T10:01:12;98481.38;;;6.12;63.66
76611;BME280;65503;48.534;9.062;2023-01-24T10:03:39;98493.41;;;5.80;64.04
76611;BME280;65503;48.534;9.062;2023-01-24T10:09:08;98488.66;;;5.76;64.27
76611;BME280;65503;48.534;9.062;2023-01-24T10:15:00;98490.38;;;6.09;63.75
76611;BME280;65503;48.534;9.062;2023-01-24T10:17:41;98485.28;;;6.16;63.40
76611;BME280;65503;48.534;9.062;2023-01-24T10:23:11;98492.81;;;6.35;62.94
76611;BME280;65503;48.534;9.062;2023-01-24T10:25:51;98489.53;;;6.41;62.48
76611;BME280;65503;48.534;9.062;2023-01-24T10:28:37;98488.84;;;6.55;62.27
76611;BME280;65503;48.534;9.062;2023-01-24T10:31:14;98483.97;;;6.28;62.58
76611;BME280;65503;48.534;9.062;2023-01-24T10:33:49;98490.84;;;6.21;63.30
76611;BME280;65503;48.534;9.062;2023-01-24T10:38:54;98484.31;;;6.25;63.35
76611;BME280;65503;48.534;9.062;2023-01-24T10:41:25;98492.81;;;6.43;62.58
76611;BME280;65503;48.534;9.062;2023-01-24T10:43:57;98495.75;;;6.40;62.44
76611;BME280;65503;48.534;9.062;2023-01-24T10:49:17;98490.19;;;6.27;62.89
76611;BME280;65503;48.534;9.062;2023-01-24T10:52:17;98492.13;;;6.33;62.61
76611;BME280;65503;48.534;9.062;2023-01-24T10:59:51;98488.22;;;6.45;62.40
76611;BME280;65503;48.534;9.062;2023-01-24T11:02:23;98480.72;;;6.42;62.89
76611;BME280;65503;48.534;9.062;2023-01-24T11:05:03;98478.44;;;6.31;62.69
76611;BME280;65503;48.534;9.062;2023-01-24T11:07:34;98478.94;;;6.18;63.43
76611;BME280;65503;48.534;9.062;2023-01-24T11:15:20;98468.66;;;6.09;63.90
76611;BME280;65503;48.534;9.062;2023-01-24T11:17:53;98469.44;;;6.34;63.15
76611;BME280;65503;48.534;9.062;2023-01-24T11:20:34;98468.88;;;6.71;61.87
76611;BME280;65503;48.534;9.062;2023-01-24T11:23:08;98459.91;;;6.65;61.90
76611;BME280;65503;48.534;9.062;2023-01-24T11:25:56;98464.63;;;6.78;61.36
76611;BME280;65503;48.534;9.062;2023-01-24T11:28:25;98474.53;;;6.19;63.34
76611;BME280;65503;48.534;9.062;2023-01-24T11:30:52;98464.69;;;6.45;62.83
76611;BME280;65503;48.534;9.062;2023-01-24T11:39:12;98464.13;;;7.13;60.66
76611;BME280;65503;48.534;9.062;2023-01-24T11:41:51;98456.44;;;6.73;61.42
76611;BME280;65503;48.534;9.062;2023-01-24T11:47:17;98459.63;;;6.99;60.74
76611;BME280;65503;48.534;9.062;2023-01-24T11:50:08;98449.78;;;7.01;61.10
76611;BME280;65503;48.534;9.062;2023-01-24T11:52:59;98441.19;;;6.92;60.74
76611;BME280;65503;48.534;9.062;2023-01-24T11:58:32;98452.38;;;7.17;60.51
76611;BME280;65503;48.534;9.062;2023-01-24T12:01:39;98433.97;;;7.25;59.79
76611;BME280;65503;48.534;9.062;2023-01-24T12:09:24;98427.75;;;7.26;59.85
76611;BME280;65503;48.534;9.062;2023-01-24T12:12:06;98432.66;;;7.29;59.92
76611;BME280;65503;48.534;9.062;2023-01-24T12:20:38;98432.50;;;7.00;60.67
76611;BME280;65503;48.534;9.062;2023-01-24T12:23:21;98426.63;;;6.90;60.61
76611;BME280;65503;48.534;9.062;2023-01-24T12:25:51;98422.69;;;6.94;60.75
76611;BME280;65503;48.534;9.062;2023-01-24T12:28:28;98420.72;;;6.96;60.88
76611;BME280;65503;48.534;9.062;2023-01-24T12:30:57;98419.03;;;7.03;60.74
76611;BME280;65503;48.534;9.062;2023-01-24T12:33:37;98417.47;;;6.94;60.59
76611;BME280;65503;48.534;9.062;2023-01-24T12:36:22;98428.75;;;6.94;60.93
76611;BME280;65503;48.534;9.062;2023-01-24T12:38:54;98419.88;;;6.95;61.10
76611;BME280;65503;48.534;9.062;2023-01-24T12:41:36;98421.13;;;6.77;61.22
76611;BME280;65503;48.534;9.062;2023-01-24T12:44:31;98420.72;;;6.96;60.97
76611;BME280;65503;48.534;9.062;2023-01-24T12:55:23;98411.19;;;7.03;61.11
76611;BME280;65503;48.534;9.062;2023-01-24T12:57:59;98419.34;;;7.08;60.92
76611;BME280;65503;48.534;9.062;2023-01-24T13:00:34;98417.25;;;7.03;61.23
76611;BME280;65503;48.534;9.062;2023-01-24T13:03:24;98410.91;;;6.90;61.07
76611;BME280;65503;48.534;9.062;2023-01-24T13:06:25;98415.34;;;6.89;61.16
76611;BME280;65503;48.534;9.062;2023-01-24T13:11:38;98419.16;;;6.79;61.35
76611;BME280;65503;48.534;9.062;2023-01-24T13:14:17;98412.66;;;6.67;61.66
76611;BME280;65503;48.534;9.062;2023-01-24T13:22:10;98401.50;;;6.81;61.65
76611;BME280;65503;48.534;9.062;2023-01-24T13:24:59;98395.72;;;6.54;62.13
76611;BME280;65503;48.534;9.062;2023-01-24T13:31:07;98396.94;;;6.67;61.84
76611;BME280;65503;48.534;9.062;2023-01-24T13:33:40;98401.19;;;6.68;62.13
76611;BME280;65503;48.534;9.062;2023-01-24T13:36:17;98392.84;;;6.72;61.79
76611;BME280;65503;48.534;9.062;2023-01-24T13:38:45;98403.19;;;6.66;61.75
76611;BME280;65503;48.534;9.062;2023-01-24T13:43:59;98403.56;;;6.46;62.71
76611;BME280;65503;48.534;9.062;2023-01-24T13:49:18;98403.19;;;6.66;62.12
76611;BME280;65503;48.534;9.062;2023-01-24T13:51:48;98404.13;;;6.73;61.93
76611;BME280;65503;48.534;9.062;2023-01-24T13:54:18;98408.44;;;6.57;62.05
76611;BME280;65503;48.534;9.062;2023-01-24T13:59:38;98407.19;;;6.37;62.85
76611;BME280;65503;48.534;9.062;2023-01-24T14:02:29;98408.66;;;6.40;62.88
76611;BME280;65503;48.534;9.062;2023-01-24T14:04:56;98403.81;;;6.20;63.51
76611;BME280;65503;48.534;9.062;2023-01-24T14:07:38;98410.97;;;6.18;63.69
76611;BME280;65503;48.534;9.062;2023-01-24T14:10:07;98409.19;;;6.11;64.15
76611;BME280;65503;48.534;9.062;2023-01-24T14:12:39;98414.06;;;6.30;63.87
76611;BME280;65503;48.534;9.062;2023-01-24T14:20:02;98420.91;;;6.47;62.78
76611;BME280;65503;48.534;9.062;2023-01-24T14:22:36;98431.34;;;6.47;63.08
76611;BME280;65503;48.534;9.062;2023-01-24T14:25:24;98432.63;;;6.51;62.75
76611;BME280;65503;48.534;9.062;2023-01-24T14:28:00;98424.47;;;6.46;63.16
76611;BME280;65503;48.534;9.062;2023-01-24T14:30:35;98425.81;;;6.34;62.79
76611;BME280;65503;48.534;9.062;2023-01-24T14:38:32;98433.84;;;6.16;64.08
76611;BME280;65503;48.534;9.062;2023-01-24T14:40:58;98444.28;;;6.33;63.71
76611;BME280;65503;48.534;9.062;2023-01-24T14:43:38;98446.25;;;6.31;63.80
76611;BME280;65503;48.534;9.062;2023-01-24T14:46:12;98447.06;;;6.31;63.64
76611;BME280;65503;48.534;9.062;2023-01-24T14:48:45;98441.50;;;6.34;63.15
76611;BME280;65503;48.534;9.062;2023-01-24T14:51:16;98450.81;;;6.37;63.49
76611;BME280;65503;48.534;9.062;2023-01-24T14:53:50;98454.56;;;6.34;63.92
76611;BME280;65503;48.534;9.062;2023-01-24T14:56:18;98455.88;;;6.30;63.64
76611;BME280;65503;48.534;9.062;2023-01-24T14:58:45;98457.84;;;6.28;63.77
76611;BME280;65503;48.534;9.062;2023-01-24T15:01:28;98460.47;;;6.36;63.50
76611;BME280;65503;48.534;9.062;2023-01-24T15:03:56;98458.50;;;6.22;63.89
76611;BME280;65503;48.534;9.062;2023-01-24T15:06:24;98458.81;;;6.27;63.84
76611;BME280;65503;48.534;9.062;2023-01-24T15:08:55;98459.00;;;6.26;63.72
76611;BME280;65503;48.534;9.062;2023-01-24T15:11:33;98462.09;;;6.21;63.84
76611;BME280;65503;48.534;9.062;2023-01-24T15:14:04;98461.97;;;6.14;64.47